sensor_id;sensor_type;location;lat;lon;timestamp;P1;durP1;ratioP1;P2;durP2;ratioP2
73359;SDS011;63092;43.582;19.528;2022-12-18T00:01:56;15.45;;;8.40;;
73359;SDS011;63092;43.582;19.528;2022-12-18T00:04:24;17.95;;;10.85;;
73359;SDS011;63092;43.582;19.528;2022-12-18T00:06:51;16.25;;;7.30;;
73359;SDS011;63092;43.582;19.528;2022-12-18T00:09:17;11.75;;;6.68;;
73359;SDS011;63092;43.582;19.528;2022-12-18T00:11:43;15.15;;;8.07;;
73359;SDS011;63092;43.582;19.528;2022-12-18T00:14:10;12.13;;;7.10;;
73359;SDS011;63092;43.582;19.528;2022-12-18T00:16:37;10.50;;;5.82;;
73359;SDS011;63092;43.582;19.528;2022-12-18T00:19:03;13.57;;;6.85;;
73359;SDS011;63092;43.582;19.528;2022-12-18T00:21:30;11.88;;;6.35;;
73359;SDS011;63092;43.582;19.528;2022-12-18T00:23:58;12.50;;;6.85;;
73359;SDS011;63092;43.582;19.528;2022-12-18T00:26:26;11.85;;;7.00;;
73359;SDS011;63092;43.582;19.528;2022-12-18T00:28:53;16.73;;;9.77;;
73359;SDS011;63092;43.582;19.528;2022-12-18T00:31:22;11.95;;;6.57;;
73359;SDS011;63092;43.582;19.528;2022-12-18T00:33:49;14.05;;;8.07;;
73359;SDS011;63092;43.582;19.528;2022-12-18T00:36:17;15.95;;;8.82;;
73359;SDS011;63092;43.582;19.528;2022-12-18T00:38:47;12.15;;;7.32;;
73359;SDS011;63092;43.582;19.528;2022-12-18T00:41:13;14.43;;;8.13;;
73359;SDS011;63092;43.582;19.528;2022-12-18T00:44:00;32.50;;;15.90;;
73359;SDS011;63092;43.582;19.528;2022-12-18T00:46:27;12.30;;;6.90;;
73359;SDS011;63092;43.582;19.528;2022-12-18T00:48:52;11.98;;;6.97;;
73359;SDS011;63092;43.582;19.528;2022-12-18T00:51:18;12.50;;;6.30;;
73359;SDS011;63092;43.582;19.528;2022-12-18T00:53:44;14.25;;;7.47;;
73359;SDS011;63092;43.582;19.528;2022-12-18T00:56:09;13.60;;;6.82;;
73359;SDS011;63092;43.582;19.528;2022-12-18T00:58:35;16.13;;;8.57;;
73359;SDS011;63092;43.582;19.528;2022-12-18T01:01:03;16.98;;;8.80;;
73359;SDS011;63092;43.582;19.528;2022-12-18T01:03:29;20.50;;;10.82;;
73359;SDS011;63092;43.582;19.528;2022-12-18T01:05:55;16.50;;;8.57;;
73359;SDS011;63092;43.582;19.528;2022-12-18T01:08:21;16.52;;;8.43;;
73359;SDS011;63092;43.582;19.528;2022-12-18T01:10:48;13.48;;;7.45;;
73359;SDS011;63092;43.582;19.528;2022-12-18T01:13:13;10.95;;;6.32;;
73359;SDS011;63092;43.582;19.528;2022-12-18T01:15:39;11.15;;;6.05;;
73359;SDS011;63092;43.582;19.528;2022-12-18T01:18:06;10.52;;;6.40;;
73359;SDS011;63092;43.582;19.528;2022-12-18T01:20:32;12.38;;;6.78;;
73359;SDS011;63092;43.582;19.528;2022-12-18T01:22:58;10.50;;;6.40;;
73359;SDS011;63092;43.582;19.528;2022-12-18T01:25:23;10.65;;;6.07;;
73359;SDS011;63092;43.582;19.528;2022-12-18T01:27:50;14.38;;;7.47;;
73359;SDS011;63092;43.582;19.528;2022-12-18T01:30:16;13.43;;;7.03;;
73359;SDS011;63092;43.582;19.528;2022-12-18T01:32:41;12.15;;;7.05;;
73359;SDS011;63092;43.582;19.528;2022-12-18T01:35:07;14.25;;;8.20;;
73359;SDS011;63092;43.582;19.528;2022-12-18T01:37:33;16.13;;;8.90;;
73359;SDS011;63092;43.582;19.528;2022-12-18T01:39:59;15.30;;;9.13;;
73359;SDS011;63092;43.582;19.528;2022-12-18T01:42:24;12.50;;;7.47;;
73359;SDS011;63092;43.582;19.528;2022-12-18T01:45:04;12.70;;;7.07;;
73359;SDS011;63092;43.582;19.528;2022-12-18T01:52:55;15.90;;;7.60;;
73359;SDS011;63092;43.582;19.528;2022-12-18T01:55:25;11.05;;;6.32;;
73359;SDS011;63092;43.582;19.528;2022-12-18T02:00:21;14.93;;;8.13;;
73359;SDS011;63092;43.582;19.528;2022-12-18T02:02:48;13.75;;;7.68;;
73359;SDS011;63092;43.582;19.528;2022-12-18T02:05:18;14.13;;;7.63;;
73359;SDS011;63092;43.582;19.528;2022-12-18T02:08:13;14.95;;;8.40;;
73359;SDS011;63092;43.582;19.528;2022-12-18T02:18:44;17.83;;;9.50;;
73359;SDS011;63092;43.582;19.528;2022-12-18T02:27:07;16.02;;;8.02;;
73359;SDS011;63092;43.582;19.528;2022-12-18T02:29:40;15.47;;;9.00;;
73359;SDS011;63092;43.582;19.528;2022-12-18T02:32:09;15.02;;;8.05;;
73359;SDS011;63092;43.582;19.528;2022-12-18T02:34:40;19.17;;;8.75;;
73359;SDS011;63092;43.582;19.528;2022-12-18T02:37:10;14.45;;;7.82;;
73359;SDS011;63092;43.582;19.528;2022-12-18T02:39:38;16.63;;;8.85;;
73359;SDS011;63092;43.582;19.528;2022-12-18T02:42:08;18.20;;;10.02;;
73359;SDS011;63092;43.582;19.528;2022-12-18T02:44:34;17.25;;;9.35;;
73359;SDS011;63092;43.582;19.528;2022-12-18T02:47:08;19.05;;;10.00;;
73359;SDS011;63092;43.582;19.528;2022-12-18T02:52:22;17.58;;;9.40;;
73359;SDS011;63092;43.582;19.528;2022-12-18T02:57:43;18.85;;;9.00;;
73359;SDS011;63092;43.582;19.528;2022-12-18T03:00:22;18.40;;;9.90;;
73359;SDS011;63092;43.582;19.528;2022-12-18T03:08:25;18.25;;;9.18;;
73359;SDS011;63092;43.582;19.528;2022-12-18T03:10:56;19.80;;;10.18;;
73359;SDS011;63092;43.582;19.528;2022-12-18T03:16:06;18.08;;;9.18;;
73359;SDS011;63092;43.582;19.528;2022-12-18T03:18:36;16.20;;;9.55;;
73359;SDS011;63092;43.582;19.528;2022-12-18T03:21:12;17.48;;;9.27;;
73359;SDS011;63092;43.582;19.528;2022-12-18T03:23:40;17.92;;;9.05;;
73359;SDS011;63092;43.582;19.528;2022-12-18T03:26:12;18.33;;;9.70;;
73359;SDS011;63092;43.582;19.528;2022-12-18T03:28:43;18.67;;;10.13;;
73359;SDS011;63092;43.582;19.528;2022-12-18T03:31:22;18.98;;;10.05;;
73359;SDS011;63092;43.582;19.528;2022-12-18T03:33:55;16.88;;;9.48;;
73359;SDS011;63092;43.582;19.528;2022-12-18T03:36:26;17.23;;;9.13;;
73359;SDS011;63092;43.582;19.528;2022-12-18T03:38:52;17.60;;;9.57;;
73359;SDS011;63092;43.582;19.528;2022-12-18T03:41:19;17.13;;;9.70;;
73359;SDS011;63092;43.582;19.528;2022-12-18T03:46:43;16.58;;;9.10;;
73359;SDS011;63092;43.582;19.528;2022-12-18T03:51:52;17.85;;;9.40;;
73359;SDS011;63092;43.582;19.528;2022-12-18T03:54:26;16.85;;;8.93;;
73359;SDS011;63092;43.582;19.528;2022-12-18T03:57:01;17.33;;;9.27;;
73359;SDS011;63092;43.582;19.528;2022-12-18T03:59:32;52.10;;;24.55;;
73359;SDS011;63092;43.582;19.528;2022-12-18T04:02:00;35.35;;;21.23;;
73359;SDS011;63092;43.582;19.528;2022-12-18T04:04:29;27.15;;;16.80;;
73359;SDS011;63092;43.582;19.528;2022-12-18T04:06:56;21.58;;;11.80;;
73359;SDS011;63092;43.582;19.528;2022-12-18T04:09:23;27.30;;;14.98;;
73359;SDS011;63092;43.582;19.528;2022-12-18T04:11:51;24.73;;;13.40;;
73359;SDS011;63092;43.582;19.528;2022-12-18T04:14:17;20.80;;;12.48;;
73359;SDS011;63092;43.582;19.528;2022-12-18T04:16:42;21.85;;;12.57;;
73359;SDS011;63092;43.582;19.528;2022-12-18T04:19:08;20.00;;;10.98;;
73359;SDS011;63092;43.582;19.528;2022-12-18T04:21:34;20.42;;;11.30;;
73359;SDS011;63092;43.582;19.528;2022-12-18T04:24:00;23.65;;;13.00;;
73359;SDS011;63092;43.582;19.528;2022-12-18T04:26:25;23.17;;;12.60;;
73359;SDS011;63092;43.582;19.528;2022-12-18T04:28:51;23.63;;;11.80;;
73359;SDS011;63092;43.582;19.528;2022-12-18T04:31:17;22.00;;;11.00;;
73359;SDS011;63092;43.582;19.528;2022-12-18T04:33:43;20.00;;;11.35;;
73359;SDS011;63092;43.582;19.528;2022-12-18T04:36:08;21.40;;;11.18;;
73359;SDS011;63092;43.582;19.528;2022-12-18T04:38:34;18.25;;;9.18;;
73359;SDS011;63092;43.582;19.528;2022-12-18T04:41:00;18.08;;;9.82;;
73359;SDS011;63092;43.582;19.528;2022-12-18T04:43:26;19.52;;;10.05;;
73359;SDS011;63092;43.582;19.528;2022-12-18T04:45:51;23.63;;;12.73;;
73359;SDS011;63092;43.582;19.528;2022-12-18T04:48:17;21.13;;;11.38;;
73359;SDS011;63092;43.582;19.528;2022-12-18T04:50:43;18.58;;;9.95;;
73359;SDS011;63092;43.582;19.528;2022-12-18T04:53:09;19.27;;;10.27;;
73359;SDS011;63092;43.582;19.528;2022-12-18T04:55:34;21.52;;;11.48;;
73359;SDS011;63092;43.582;19.528;2022-12-18T04:58:00;25.20;;;12.63;;
73359;SDS011;63092;43.582;19.528;2022-12-18T05:00:26;21.80;;;12.30;;
73359;SDS011;63092;43.582;19.528;2022-12-18T05:02:51;22.85;;;13.63;;
73359;SDS011;63092;43.582;19.528;2022-12-18T05:05:17;21.17;;;12.05;;
73359;SDS011;63092;43.582;19.528;2022-12-18T05:07:43;19.60;;;10.75;;
73359;SDS011;63092;43.582;19.528;2022-12-18T05:10:09;21.63;;;11.50;;
73359;SDS011;63092;43.582;19.528;2022-12-18T05:12:35;20.90;;;11.93;;
73359;SDS011;63092;43.582;19.528;2022-12-18T05:15:20;19.92;;;11.45;;
73359;SDS011;63092;43.582;19.528;2022-12-18T05:17:46;22.65;;;12.38;;
73359;SDS011;63092;43.582;19.528;2022-12-18T05:20:12;19.58;;;10.95;;
73359;SDS011;63092;43.582;19.528;2022-12-18T05:22:38;26.35;;;13.40;;
73359;SDS011;63092;43.582;19.528;2022-12-18T05:25:03;28.13;;;13.02;;
73359;SDS011;63092;43.582;19.528;2022-12-18T05:27:29;22.35;;;11.82;;
73359;SDS011;63092;43.582;19.528;2022-12-18T05:29:55;20.90;;;12.18;;
73359;SDS011;63092;43.582;19.528;2022-12-18T05:32:21;21.95;;;11.27;;
73359;SDS011;63092;43.582;19.528;2022-12-18T05:34:46;19.90;;;10.40;;
73359;SDS011;63092;43.582;19.528;2022-12-18T05:37:12;18.95;;;10.00;;
73359;SDS011;63092;43.582;19.528;2022-12-18T05:39:38;18.65;;;10.10;;
73359;SDS011;63092;43.582;19.528;2022-12-18T05:42:03;24.27;;;13.18;;
73359;SDS011;63092;43.582;19.528;2022-12-18T05:44:29;26.58;;;14.32;;
73359;SDS011;63092;43.582;19.528;2022-12-18T05:46:55;25.02;;;14.13;;
73359;SDS011;63092;43.582;19.528;2022-12-18T05:49:20;27.42;;;14.60;;
73359;SDS011;63092;43.582;19.528;2022-12-18T05:51:46;25.40;;;13.32;;
73359;SDS011;63092;43.582;19.528;2022-12-18T05:54:12;61.53;;;31.00;;
73359;SDS011;63092;43.582;19.528;2022-12-18T05:56:38;31.15;;;14.65;;
73359;SDS011;63092;43.582;19.528;2022-12-18T05:59:03;20.40;;;10.95;;
73359;SDS011;63092;43.582;19.528;2022-12-18T06:01:29;21.00;;;11.05;;
73359;SDS011;63092;43.582;19.528;2022-12-18T06:03:55;21.90;;;10.55;;
73359;SDS011;63092;43.582;19.528;2022-12-18T06:06:23;39.53;;;19.17;;
73359;SDS011;63092;43.582;19.528;2022-12-18T06:08:51;29.55;;;15.65;;
73359;SDS011;63092;43.582;19.528;2022-12-18T06:11:22;26.63;;;16.27;;
73359;SDS011;63092;43.582;19.528;2022-12-18T06:13:50;23.70;;;13.07;;
73359;SDS011;63092;43.582;19.528;2022-12-18T06:16:17;20.23;;;10.88;;
73359;SDS011;63092;43.582;19.528;2022-12-18T06:18:43;19.08;;;9.60;;
73359;SDS011;63092;43.582;19.528;2022-12-18T06:21:08;17.73;;;9.38;;
73359;SDS011;63092;43.582;19.528;2022-12-18T06:23:34;19.63;;;9.85;;
73359;SDS011;63092;43.582;19.528;2022-12-18T06:26:07;19.02;;;10.27;;
73359;SDS011;63092;43.582;19.528;2022-12-18T06:28:34;19.38;;;10.38;;
73359;SDS011;63092;43.582;19.528;2022-12-18T06:31:00;32.15;;;14.38;;
73359;SDS011;63092;43.582;19.528;2022-12-18T06:33:28;22.25;;;11.13;;
73359;SDS011;63092;43.582;19.528;2022-12-18T06:35:54;77.70;;;42.55;;
73359;SDS011;63092;43.582;19.528;2022-12-18T06:38:36;29.95;;;13.93;;
73359;SDS011;63092;43.582;19.528;2022-12-18T06:41:19;49.55;;;24.33;;
73359;SDS011;63092;43.582;19.528;2022-12-18T06:43:46;50.03;;;29.38;;
73359;SDS011;63092;43.582;19.528;2022-12-18T06:46:11;50.78;;;27.83;;
73359;SDS011;63092;43.582;19.528;2022-12-18T06:48:38;95.13;;;46.67;;
73359;SDS011;63092;43.582;19.528;2022-12-18T06:51:04;62.45;;;34.22;;
73359;SDS011;63092;43.582;19.528;2022-12-18T06:53:31;35.45;;;20.27;;
73359;SDS011;63092;43.582;19.528;2022-12-18T06:56:03;32.08;;;17.88;;
73359;SDS011;63092;43.582;19.528;2022-12-18T06:58:31;33.97;;;18.83;;
73359;SDS011;63092;43.582;19.528;2022-12-18T07:01:04;26.58;;;14.05;;
73359;SDS011;63092;43.582;19.528;2022-12-18T07:03:31;45.78;;;24.70;;
73359;SDS011;63092;43.582;19.528;2022-12-18T07:05:57;60.03;;;29.77;;
73359;SDS011;63092;43.582;19.528;2022-12-18T07:08:22;49.33;;;26.55;;
73359;SDS011;63092;43.582;19.528;2022-12-18T07:10:48;51.53;;;28.67;;
73359;SDS011;63092;43.582;19.528;2022-12-18T07:13:15;92.25;;;51.53;;
73359;SDS011;63092;43.582;19.528;2022-12-18T07:15:41;53.58;;;27.90;;
73359;SDS011;63092;43.582;19.528;2022-12-18T07:18:08;48.08;;;23.73;;
73359;SDS011;63092;43.582;19.528;2022-12-18T07:20:33;38.22;;;19.25;;
73359;SDS011;63092;43.582;19.528;2022-12-18T07:23:01;48.20;;;23.42;;
73359;SDS011;63092;43.582;19.528;2022-12-18T07:25:28;112.97;;;70.28;;
73359;SDS011;63092;43.582;19.528;2022-12-18T07:27:53;37.72;;;22.25;;
73359;SDS011;63092;43.582;19.528;2022-12-18T07:30:19;29.25;;;17.02;;
73359;SDS011;63092;43.582;19.528;2022-12-18T07:32:45;25.52;;;15.40;;
73359;SDS011;63092;43.582;19.528;2022-12-18T07:35:11;22.73;;;13.00;;
73359;SDS011;63092;43.582;19.528;2022-12-18T07:37:37;26.02;;;14.18;;
73359;SDS011;63092;43.582;19.528;2022-12-18T07:40:03;24.60;;;14.20;;
73359;SDS011;63092;43.582;19.528;2022-12-18T07:42:29;25.92;;;14.65;;
73359;SDS011;63092;43.582;19.528;2022-12-18T07:45:00;31.65;;;18.42;;
73359;SDS011;63092;43.582;19.528;2022-12-18T07:47:29;26.23;;;13.95;;
73359;SDS011;63092;43.582;19.528;2022-12-18T07:49:55;50.85;;;27.88;;
73359;SDS011;63092;43.582;19.528;2022-12-18T07:52:21;47.03;;;23.85;;
73359;SDS011;63092;43.582;19.528;2022-12-18T07:54:46;22.33;;;11.48;;
73359;SDS011;63092;43.582;19.528;2022-12-18T07:57:15;59.00;;;26.42;;
73359;SDS011;63092;43.582;19.528;2022-12-18T07:59:41;96.55;;;40.17;;
73359;SDS011;63092;43.582;19.528;2022-12-18T08:02:07;29.42;;;15.27;;
73359;SDS011;63092;43.582;19.528;2022-12-18T08:04:33;37.53;;;21.63;;
73359;SDS011;63092;43.582;19.528;2022-12-18T08:06:59;28.13;;;15.98;;
73359;SDS011;63092;43.582;19.528;2022-12-18T08:09:25;25.63;;;14.07;;
73359;SDS011;63092;43.582;19.528;2022-12-18T08:11:50;20.80;;;11.32;;
73359;SDS011;63092;43.582;19.528;2022-12-18T08:14:16;32.38;;;16.42;;
73359;SDS011;63092;43.582;19.528;2022-12-18T08:16:42;32.80;;;18.23;;
73359;SDS011;63092;43.582;19.528;2022-12-18T08:19:08;31.63;;;17.80;;
73359;SDS011;63092;43.582;19.528;2022-12-18T08:21:33;20.20;;;12.40;;
73359;SDS011;63092;43.582;19.528;2022-12-18T08:24:00;29.77;;;14.40;;
73359;SDS011;63092;43.582;19.528;2022-12-18T08:26:28;39.08;;;20.33;;
73359;SDS011;63092;43.582;19.528;2022-12-18T08:28:55;32.00;;;21.03;;
73359;SDS011;63092;43.582;19.528;2022-12-18T08:31:22;26.27;;;13.80;;
73359;SDS011;63092;43.582;19.528;2022-12-18T08:33:49;29.05;;;14.70;;
73359;SDS011;63092;43.582;19.528;2022-12-18T08:36:16;32.85;;;18.80;;
73359;SDS011;63092;43.582;19.528;2022-12-18T08:38:42;31.52;;;18.92;;
73359;SDS011;63092;43.582;19.528;2022-12-18T08:41:11;44.55;;;23.75;;
73359;SDS011;63092;43.582;19.528;2022-12-18T08:43:38;44.72;;;22.45;;
73359;SDS011;63092;43.582;19.528;2022-12-18T08:46:23;41.33;;;20.05;;
73359;SDS011;63092;43.582;19.528;2022-12-18T08:48:51;61.50;;;28.63;;
73359;SDS011;63092;43.582;19.528;2022-12-18T08:51:18;39.90;;;19.08;;
73359;SDS011;63092;43.582;19.528;2022-12-18T08:53:44;50.05;;;25.33;;
73359;SDS011;63092;43.582;19.528;2022-12-18T08:56:10;43.22;;;20.73;;
73359;SDS011;63092;43.582;19.528;2022-12-18T08:58:37;23.45;;;13.63;;
73359;SDS011;63092;43.582;19.528;2022-12-18T09:01:03;25.52;;;14.25;;
73359;SDS011;63092;43.582;19.528;2022-12-18T09:03:30;19.35;;;10.25;;
73359;SDS011;63092;43.582;19.528;2022-12-18T09:05:56;22.38;;;12.00;;
73359;SDS011;63092;43.582;19.528;2022-12-18T09:08:22;23.58;;;12.93;;
73359;SDS011;63092;43.582;19.528;2022-12-18T09:10:48;23.70;;;14.20;;
73359;SDS011;63092;43.582;19.528;2022-12-18T09:13:15;24.33;;;13.02;;
73359;SDS011;63092;43.582;19.528;2022-12-18T09:18:10;23.88;;;13.85;;
73359;SDS011;63092;43.582;19.528;2022-12-18T09:20:37;25.00;;;11.85;;
73359;SDS011;63092;43.582;19.528;2022-12-18T09:23:04;22.60;;;13.90;;
73359;SDS011;63092;43.582;19.528;2022-12-18T09:25:30;24.40;;;11.57;;
73359;SDS011;63092;43.582;19.528;2022-12-18T09:28:01;32.72;;;16.27;;
73359;SDS011;63092;43.582;19.528;2022-12-18T09:30:28;27.08;;;16.23;;
73359;SDS011;63092;43.582;19.528;2022-12-18T09:32:54;29.35;;;16.02;;
73359;SDS011;63092;43.582;19.528;2022-12-18T09:35:20;16.30;;;10.32;;
73359;SDS011;63092;43.582;19.528;2022-12-18T09:37:46;16.63;;;9.95;;
73359;SDS011;63092;43.582;19.528;2022-12-18T09:40:16;24.92;;;13.55;;
73359;SDS011;63092;43.582;19.528;2022-12-18T09:42:45;22.08;;;11.38;;
73359;SDS011;63092;43.582;19.528;2022-12-18T09:45:20;32.53;;;18.67;;
73359;SDS011;63092;43.582;19.528;2022-12-18T09:47:47;25.52;;;13.73;;
73359;SDS011;63092;43.582;19.528;2022-12-18T09:52:59;22.33;;;10.80;;
73359;SDS011;63092;43.582;19.528;2022-12-18T09:55:33;26.33;;;12.85;;
73359;SDS011;63092;43.582;19.528;2022-12-18T09:58:05;22.00;;;11.82;;
73359;SDS011;63092;43.582;19.528;2022-12-18T10:00:40;48.67;;;18.40;;
73359;SDS011;63092;43.582;19.528;2022-12-18T10:03:09;40.38;;;16.10;;
73359;SDS011;63092;43.582;19.528;2022-12-18T10:25:28;13.63;;;7.30;;
73359;SDS011;63092;43.582;19.528;2022-12-18T10:28:10;25.45;;;12.75;;
73359;SDS011;63092;43.582;19.528;2022-12-18T10:30:40;25.88;;;11.88;;
73359;SDS011;63092;43.582;19.528;2022-12-18T10:33:11;13.30;;;6.78;;
73359;SDS011;63092;43.582;19.528;2022-12-18T10:35:49;19.35;;;11.00;;
73359;SDS011;63092;43.582;19.528;2022-12-18T10:43:29;19.42;;;10.15;;
73359;SDS011;63092;43.582;19.528;2022-12-18T10:46:01;18.17;;;10.02;;
73359;SDS011;63092;43.582;19.528;2022-12-18T10:48:48;16.25;;;9.05;;
73359;SDS011;63092;43.582;19.528;2022-12-18T10:54:02;18.50;;;9.00;;
73359;SDS011;63092;43.582;19.528;2022-12-18T10:56:31;20.40;;;11.68;;
73359;SDS011;63092;43.582;19.528;2022-12-18T11:01:53;24.90;;;14.77;;
73359;SDS011;63092;43.582;19.528;2022-12-18T11:04:21;25.27;;;11.30;;
73359;SDS011;63092;43.582;19.528;2022-12-18T11:07:04;20.40;;;10.55;;
73359;SDS011;63092;43.582;19.528;2022-12-18T11:09:35;29.00;;;15.05;;
73359;SDS011;63092;43.582;19.528;2022-12-18T11:12:23;18.38;;;10.25;;
73359;SDS011;63092;43.582;19.528;2022-12-18T11:14:51;15.20;;;8.88;;
73359;SDS011;63092;43.582;19.528;2022-12-18T11:19:44;16.88;;;9.57;;
73359;SDS011;63092;43.582;19.528;2022-12-18T11:22:20;15.10;;;6.90;;
73359;SDS011;63092;43.582;19.528;2022-12-18T11:24:59;20.00;;;11.10;;
73359;SDS011;63092;43.582;19.528;2022-12-18T11:27:30;19.33;;;11.27;;
73359;SDS011;63092;43.582;19.528;2022-12-18T11:30:10;16.05;;;8.68;;
73359;SDS011;63092;43.582;19.528;2022-12-18T11:32:51;20.27;;;10.02;;
73359;SDS011;63092;43.582;19.528;2022-12-18T11:35:23;28.90;;;16.08;;
73359;SDS011;63092;43.582;19.528;2022-12-18T11:37:58;19.17;;;9.93;;
73359;SDS011;63092;43.582;19.528;2022-12-18T11:40:31;15.50;;;8.55;;
73359;SDS011;63092;43.582;19.528;2022-12-18T11:43:14;16.55;;;9.73;;
73359;SDS011;63092;43.582;19.528;2022-12-18T11:45:51;16.52;;;9.38;;
73359;SDS011;63092;43.582;19.528;2022-12-18T11:48:24;16.30;;;8.05;;
73359;SDS011;63092;43.582;19.528;2022-12-18T11:50:55;19.23;;;11.00;;
73359;SDS011;63092;43.582;19.528;2022-12-18T11:53:22;16.30;;;9.50;;
73359;SDS011;63092;43.582;19.528;2022-12-18T12:03:49;25.25;;;12.25;;
73359;SDS011;63092;43.582;19.528;2022-12-18T12:06:24;22.25;;;12.02;;
73359;SDS011;63092;43.582;19.528;2022-12-18T12:09:12;22.90;;;12.93;;
73359;SDS011;63092;43.582;19.528;2022-12-18T12:38:49;15.30;;;10.73;;
73359;SDS011;63092;43.582;19.528;2022-12-18T12:41:21;10.52;;;6.63;;
73359;SDS011;63092;43.582;19.528;2022-12-18T12:44:16;17.70;;;9.32;;
73359;SDS011;63092;43.582;19.528;2022-12-18T12:46:49;16.40;;;8.85;;
73359;SDS011;63092;43.582;19.528;2022-12-18T12:49:17;13.85;;;6.32;;
73359;SDS011;63092;43.582;19.528;2022-12-18T12:51:47;16.55;;;10.07;;
73359;SDS011;63092;43.582;19.528;2022-12-18T12:54:26;14.18;;;7.45;;
73359;SDS011;63092;43.582;19.528;2022-12-18T12:57:01;17.88;;;9.55;;
73359;SDS011;63092;43.582;19.528;2022-12-18T13:02:13;20.85;;;11.57;;
73359;SDS011;63092;43.582;19.528;2022-12-18T13:04:48;18.30;;;10.80;;
73359;SDS011;63092;43.582;19.528;2022-12-18T13:07:30;22.10;;;11.88;;
73359;SDS011;63092;43.582;19.528;2022-12-18T13:15:31;19.02;;;10.60;;
73359;SDS011;63092;43.582;19.528;2022-12-18T13:20:34;20.40;;;12.07;;
73359;SDS011;63092;43.582;19.528;2022-12-18T13:23:19;19.58;;;11.45;;
73359;SDS011;63092;43.582;19.528;2022-12-18T13:36:47;40.22;;;22.10;;
73359;SDS011;63092;43.582;19.528;2022-12-18T13:41:44;44.05;;;26.50;;
73359;SDS011;63092;43.582;19.528;2022-12-18T13:46:55;41.22;;;23.23;;
73359;SDS011;63092;43.582;19.528;2022-12-18T13:49:22;28.00;;;14.88;;
73359;SDS011;63092;43.582;19.528;2022-12-18T13:51:50;33.60;;;19.00;;
73359;SDS011;63092;43.582;19.528;2022-12-18T13:54:19;21.90;;;12.65;;
73359;SDS011;63092;43.582;19.528;2022-12-18T13:57:04;28.40;;;16.13;;
73359;SDS011;63092;43.582;19.528;2022-12-18T13:59:38;30.38;;;16.67;;
73359;SDS011;63092;43.582;19.528;2022-12-18T14:02:13;14.93;;;9.07;;
73359;SDS011;63092;43.582;19.528;2022-12-18T14:04:44;18.67;;;11.27;;
73359;SDS011;63092;43.582;19.528;2022-12-18T14:07:12;23.58;;;14.25;;
73359;SDS011;63092;43.582;19.528;2022-12-18T14:09:44;33.83;;;17.45;;
73359;SDS011;63092;43.582;19.528;2022-12-18T14:12:32;39.47;;;20.88;;
73359;SDS011;63092;43.582;19.528;2022-12-18T14:17:51;37.55;;;21.33;;
73359;SDS011;63092;43.582;19.528;2022-12-18T14:20:25;44.17;;;25.42;;
73359;SDS011;63092;43.582;19.528;2022-12-18T14:22:52;50.30;;;27.55;;
73359;SDS011;63092;43.582;19.528;2022-12-18T14:25:19;45.17;;;23.23;;
73359;SDS011;63092;43.582;19.528;2022-12-18T14:33:03;48.15;;;26.05;;
73359;SDS011;63092;43.582;19.528;2022-12-18T14:35:37;28.52;;;14.15;;
73359;SDS011;63092;43.582;19.528;2022-12-18T14:38:20;33.85;;;18.48;;
73359;SDS011;63092;43.582;19.528;2022-12-18T14:41:06;38.67;;;23.85;;
73359;SDS011;63092;43.582;19.528;2022-12-18T14:43:36;41.38;;;24.05;;
73359;SDS011;63092;43.582;19.528;2022-12-18T14:46:04;41.33;;;22.80;;
73359;SDS011;63092;43.582;19.528;2022-12-18T14:48:50;27.25;;;15.00;;
73359;SDS011;63092;43.582;19.528;2022-12-18T14:51:20;22.27;;;11.95;;
73359;SDS011;63092;43.582;19.528;2022-12-18T14:53:57;27.15;;;16.00;;
73359;SDS011;63092;43.582;19.528;2022-12-18T14:58:55;61.17;;;33.38;;
73359;SDS011;63092;43.582;19.528;2022-12-18T15:01:27;43.22;;;25.60;;
73359;SDS011;63092;43.582;19.528;2022-12-18T15:03:58;38.33;;;22.73;;
73359;SDS011;63092;43.582;19.528;2022-12-18T15:06:30;34.20;;;20.10;;
73359;SDS011;63092;43.582;19.528;2022-12-18T15:09:05;51.47;;;27.05;;
73359;SDS011;63092;43.582;19.528;2022-12-18T15:11:46;38.58;;;22.20;;
73359;SDS011;63092;43.582;19.528;2022-12-18T15:14:31;29.05;;;15.00;;
73359;SDS011;63092;43.582;19.528;2022-12-18T15:16:58;38.30;;;21.38;;
73359;SDS011;63092;43.582;19.528;2022-12-18T15:19:43;40.42;;;21.65;;
73359;SDS011;63092;43.582;19.528;2022-12-18T15:22:29;41.33;;;24.73;;
73359;SDS011;63092;43.582;19.528;2022-12-18T15:24:58;35.03;;;20.13;;
73359;SDS011;63092;43.582;19.528;2022-12-18T15:27:29;43.42;;;24.67;;
73359;SDS011;63092;43.582;19.528;2022-12-18T15:32:33;32.40;;;17.90;;
73359;SDS011;63092;43.582;19.528;2022-12-18T15:37:34;34.08;;;19.92;;
73359;SDS011;63092;43.582;19.528;2022-12-18T15:40:00;31.63;;;20.25;;
73359;SDS011;63092;43.582;19.528;2022-12-18T15:42:27;31.58;;;19.08;;
73359;SDS011;63092;43.582;19.528;2022-12-18T15:45:12;30.95;;;18.77;;
73359;SDS011;63092;43.582;19.528;2022-12-18T15:47:39;25.08;;;14.43;;
73359;SDS011;63092;43.582;19.528;2022-12-18T15:50:06;37.90;;;18.55;;
73359;SDS011;63092;43.582;19.528;2022-12-18T15:52:35;33.63;;;19.65;;
73359;SDS011;63092;43.582;19.528;2022-12-18T15:55:16;32.10;;;17.17;;
73359;SDS011;63092;43.582;19.528;2022-12-18T15:58:05;31.88;;;18.48;;
73359;SDS011;63092;43.582;19.528;2022-12-18T16:00:32;37.72;;;22.50;;
73359;SDS011;63092;43.582;19.528;2022-12-18T16:02:59;33.13;;;17.80;;
73359;SDS011;63092;43.582;19.528;2022-12-18T16:05:26;37.10;;;21.08;;
73359;SDS011;63092;43.582;19.528;2022-12-18T16:07:52;39.25;;;21.45;;
73359;SDS011;63092;43.582;19.528;2022-12-18T16:10:18;65.60;;;34.25;;
73359;SDS011;63092;43.582;19.528;2022-12-18T16:12:45;47.83;;;27.40;;
73359;SDS011;63092;43.582;19.528;2022-12-18T16:15:12;49.50;;;25.40;;
73359;SDS011;63092;43.582;19.528;2022-12-18T16:17:41;42.95;;;21.48;;
73359;SDS011;63092;43.582;19.528;2022-12-18T16:20:12;61.58;;;28.30;;
73359;SDS011;63092;43.582;19.528;2022-12-18T16:22:42;72.32;;;33.67;;
73359;SDS011;63092;43.582;19.528;2022-12-18T16:25:19;54.25;;;28.45;;
73359;SDS011;63092;43.582;19.528;2022-12-18T16:27:50;43.47;;;24.90;;
73359;SDS011;63092;43.582;19.528;2022-12-18T16:30:18;26.10;;;13.98;;
73359;SDS011;63092;43.582;19.528;2022-12-18T16:32:46;47.85;;;26.60;;
73359;SDS011;63092;43.582;19.528;2022-12-18T16:35:13;57.03;;;34.38;;
73359;SDS011;63092;43.582;19.528;2022-12-18T16:37:39;53.72;;;28.73;;
73359;SDS011;63092;43.582;19.528;2022-12-18T16:40:06;48.20;;;26.52;;
73359;SDS011;63092;43.582;19.528;2022-12-18T16:42:34;78.57;;;41.42;;
73359;SDS011;63092;43.582;19.528;2022-12-18T16:45:01;86.50;;;45.78;;
73359;SDS011;63092;43.582;19.528;2022-12-18T16:47:28;86.38;;;45.40;;
73359;SDS011;63092;43.582;19.528;2022-12-18T16:49:54;48.97;;;28.98;;
73359;SDS011;63092;43.582;19.528;2022-12-18T16:52:20;69.50;;;41.45;;
73359;SDS011;63092;43.582;19.528;2022-12-18T16:54:46;91.38;;;45.15;;
73359;SDS011;63092;43.582;19.528;2022-12-18T16:57:13;57.30;;;30.55;;
73359;SDS011;63092;43.582;19.528;2022-12-18T16:59:40;80.38;;;36.55;;
73359;SDS011;63092;43.582;19.528;2022-12-18T17:02:13;82.82;;;38.13;;
73359;SDS011;63092;43.582;19.528;2022-12-18T17:04:41;88.63;;;38.38;;